Seadream 1 — C6PW8 — position and weather

sailwx.info

Track history (hours):
 
Tides and Currents Weather Stations Pressure Air Temp Water Temp Dewpoint Dewpoint Depression Visibility Wind Speed Wind Dir Waves Ship Positions

Seadream 1

Last reported at 2017-Feb-14 11:07 UTC. Time now 2017-Feb-28 05:40 UTC.
Position N 15°39' W 061°33'.
Warning: this ship's position is 13 days out of date.

Length 105 m; draft 4.3 m.

Type: Ship. MMSI: 308908000.

Date/timePositionNaut miles runAvg speedWind from/ knotsBaromVisibWave heightAir tempDewpointWater temp
2017-Feb-14 11:07N 15°39' W 061°33'8 8.0
2017-Feb-14 10:04N 15°46' W 061°38'5 8.2
2017-Feb-14 09:30N 15°50' W 061°41'8 8.3
2017-Feb-14 08:34N 15°56' W 061°46'17 8.5
2017-Feb-14 06:33N 16°12' W 061°53'9 8.6
2017-Feb-14 05:33N 16°21' W 061°52'9 9.1
2017-Feb-14 04:34N 16°29' W 061°51'1010.1
2017-Feb-14 03:33N 16°39' W 061°49'1010.2
2017-Feb-14 02:34N 16°49' W 061°48'9 9.3
2017-Feb-14 01:33N 16°58' W 061°45'1 0.9
2017-Feb-14 00:33N 16°58' W 061°45'3 2.7
2017-Feb-13 23:33N 16°60' W 061°47'0 0.4
2017-Feb-13 22:32N 17°00' W 061°47'0 0.0
2017-Feb-13 21:30N 17°00' W 061°47'0 0.0
2017-Feb-13 20:33N 17°00' W 061°47'0 0.0
2017-Feb-13 19:31N 17°00' W 061°47'0 0.0
2017-Feb-13 18:32N 17°00' W 061°47'0 0.0
2017-Feb-13 17:32N 17°00' W 061°47'0 0.0
2017-Feb-13 16:33N 17°00' W 061°47'0 0.0
2017-Feb-13 15:31N 17°00' W 061°47'0 0.0
2017-Feb-13 14:31N 17°00' W 061°47'0 0.0
2017-Feb-13 13:32N 17°00' W 061°47'0 0.0
2017-Feb-13 12:33N 17°00' W 061°47'0 0.0
2017-Feb-13 11:33N 17°00' W 061°47'8 8.1
2017-Feb-13 10:33N 16°60' W 061°55'9 9.3
2017-Feb-13 09:34N 17°06' W 062°03'10 9.9
2017-Feb-13 08:33N 17°13' W 062°10'1414.0
2017-Feb-13 07:33N 17°22' W 062°21'1413.9
2017-Feb-13 06:33N 17°32' W 062°31'38 1.2
2017-Feb-11 23:20N 17°57' W 063°01'1112.8
2017-Feb-11 22:30N 18°03' W 063°10'5 4.8
2017-Feb-11 21:31N 18°05' W 063°05'0 0.0
2017-Feb-11 20:29N 18°05' W 063°05'0 0.0
2017-Feb-11 19:26N 18°05' W 063°05'0 0.0
2017-Feb-11 18:24N 18°05' W 063°05'0 0.0
2017-Feb-11 17:33N 18°05' W 063°05'0 0.0
2017-Feb-11 16:22N 18°05' W 063°05'0 0.0
2017-Feb-11 15:32N 18°05' W 063°05'0 0.0
2017-Feb-11 14:30N 18°05' W 063°05'0 0.0
2017-Feb-11 13:30N 18°05' W 063°05'0 0.0
2017-Feb-11 12:28N 18°05' W 063°05'0 0.0
2017-Feb-11 11:26N 18°05' W 063°05'0 0.0
2017-Feb-11 10:29N 18°05' W 063°05'4 4.1
2017-Feb-11 09:29N 18°06' W 063°09'12 9.3
2017-Feb-11 08:14N 18°09' W 063°21'64 9.5
2017-Feb-11 01:33N 18°23' W 064°26'6 5.7
2017-Feb-11 00:28N 18°26' W 064°32'0 0.0
2017-Feb-10 23:29N 18°26' W 064°32'0 0.0
2017-Feb-10 22:29N 18°26' W 064°32'5 5.5
2017-Feb-10 21:30N 18°27' W 064°27'0 0.0
2017-Feb-10 20:31N 18°27' W 064°27'0 0.0
2017-Feb-10 18:32N 18°27' W 064°27'0 0.0
2017-Feb-10 15:22N 18°27' W 064°27'0 0.0
2017-Feb-10 11:09N 18°27' W 064°27'0 0.0
2017-Feb-10 10:26N 18°27' W 064°27'0 0.0
2017-Feb-10 09:24N 18°27' W 064°27'0 0.0
2017-Feb-10 08:25N 18°27' W 064°27'0 0.0
2017-Feb-10 07:20N 18°27' W 064°27'0 0.0
2017-Feb-10 06:26N 18°27' W 064°27'0 0.0
2017-Feb-10 05:33N 18°27' W 064°27'0 0.0
2017-Feb-10 04:34N 18°27' W 064°27'0 0.0
2017-Feb-10 03:16N 18°27' W 064°27'0 0.0
2017-Feb-10 02:29N 18°27' W 064°27'0 0.0
2017-Feb-10 01:14N 18°27' W 064°27'0 0.0
2017-Feb-09 23:29N 18°27' W 064°27'7 7.3
2017-Feb-09 22:33N 18°24' W 064°33'9 1.9
2017-Feb-09 17:33N 18°23' W 064°43'0 0.5
2017-Feb-09 16:33N 18°23' W 064°43'0 0.0
2017-Feb-09 15:28N 18°23' W 064°43'0 0.0
2017-Feb-09 14:29N 18°23' W 064°43'0 0.0
2017-Feb-09 13:32N 18°23' W 064°43'1 0.5
2017-Feb-09 12:33N 18°23' W 064°43'2 1.8
2017-Feb-09 11:33N 18°22' W 064°41'9 8.6
2017-Feb-09 10:33N 18°24' W 064°32'9 8.4
2017-Feb-09 09:30N 18°21' W 064°23'  
2017-Feb-05 20:33N 17°58' W 063°02'1312.8
2017-Feb-05 19:31N 18°08' W 063°11'4 0.5
2017-Feb-05 11:22N 18°12' W 063°12'4 4.4
2017-Feb-05 10:31N 18°12' W 063°16'1 1.1
2017-Feb-05 09:28N 18°13' W 063°15'1 1.2
2017-Feb-05 08:30N 18°13' W 063°14'1 1.0
2017-Feb-05 07:33N 18°13' W 063°13'1 0.9
2017-Feb-05 06:30N 18°13' W 063°12'3 3.3
2017-Feb-05 05:32N 18°12' W 063°15'4 2.7
2017-Feb-05 04:09N 18°10' W 063°18'4 5.6
2017-Feb-05 03:30N 18°07' W 063°16'6 6.1
2017-Feb-05 02:30N 18°06' W 063°10'4 4.3
2017-Feb-05 01:32N 18°05' W 063°06'0 0.0
2017-Feb-05 00:30N 18°05' W 063°06'0 0.0
2017-Feb-04 23:33N 18°05' W 063°06'0 0.0
2017-Feb-04 22:28N 18°05' W 063°06'1 0.6
2017-Feb-04 21:29N 18°05' W 063°05'0 0.0
2017-Feb-04 20:23N 18°05' W 063°05'0 0.0
2017-Feb-04 19:32N 18°05' W 063°05'0 0.0
2017-Feb-04 18:30N 18°05' W 063°05'0 0.0
2017-Feb-04 17:31N 18°05' W 063°05'0 0.0
2017-Feb-04 16:29N 18°05' W 063°05'0 0.0
2017-Feb-04 15:27N 18°05' W 063°05'0 0.0
2017-Feb-04 14:27N 18°05' W 063°05'0 0.0
2017-Feb-04 13:25N 18°05' W 063°05'0 0.0
2017-Feb-04 12:32N 18°05' W 063°05'0 0.0
2017-Feb-04 11:31N 18°05' W 063°05'  
Track history (hours):
 
Tides and Currents Weather Stations Pressure Air Temp Water Temp Dewpoint Dewpoint Depression Visibility Wind Speed Wind Dir Waves Ship Positions

Seadream 1

Last reported at 2017-Feb-14 11:07 UTC. Time now 2017-Feb-28 05:40 UTC.
Position N 15°39' W 061°33'.
Warning: this ship's position is 13 days out of date.

Length 105 m; draft 4.3 m.

Type: Ship. MMSI: 308908000.

Date/timePositionNaut miles runAvg speedWind from/ knotsBaromVisibWave heightAir tempDewpointWater temp
2017-Feb-14 11:07N 15°39' W 061°33'8 8.0
2017-Feb-14 10:04N 15°46' W 061°38'5 8.2
2017-Feb-14 09:30N 15°50' W 061°41'8 8.3
2017-Feb-14 08:34N 15°56' W 061°46'17 8.5
2017-Feb-14 06:33N 16°12' W 061°53'9 8.6
2017-Feb-14 05:33N 16°21' W 061°52'9 9.1
2017-Feb-14 04:34N 16°29' W 061°51'1010.1
2017-Feb-14 03:33N 16°39' W 061°49'1010.2
2017-Feb-14 02:34N 16°49' W 061°48'9 9.3
2017-Feb-14 01:33N 16°58' W 061°45'1 0.9
2017-Feb-14 00:33N 16°58' W 061°45'3 2.7
2017-Feb-13 23:33N 16°60' W 061°47'0 0.4
2017-Feb-13 22:32N 17°00' W 061°47'0 0.0
2017-Feb-13 21:30N 17°00' W 061°47'0 0.0
2017-Feb-13 20:33N 17°00' W 061°47'0 0.0
2017-Feb-13 19:31N 17°00' W 061°47'0 0.0
2017-Feb-13 18:32N 17°00' W 061°47'0 0.0
2017-Feb-13 17:32N 17°00' W 061°47'0 0.0
2017-Feb-13 16:33N 17°00' W 061°47'0 0.0
2017-Feb-13 15:31N 17°00' W 061°47'0 0.0
2017-Feb-13 14:31N 17°00' W 061°47'0 0.0
2017-Feb-13 13:32N 17°00' W 061°47'0 0.0
2017-Feb-13 12:33N 17°00' W 061°47'0 0.0
2017-Feb-13 11:33N 17°00' W 061°47'8 8.1
2017-Feb-13 10:33N 16°60' W 061°55'9 9.3
2017-Feb-13 09:34N 17°06' W 062°03'10 9.9
2017-Feb-13 08:33N 17°13' W 062°10'1414.0
2017-Feb-13 07:33N 17°22' W 062°21'1413.9
2017-Feb-13 06:33N 17°32' W 062°31'38 1.2
2017-Feb-11 23:20N 17°57' W 063°01'1112.8
2017-Feb-11 22:30N 18°03' W 063°10'5 4.8
2017-Feb-11 21:31N 18°05' W 063°05'0 0.0
2017-Feb-11 20:29N 18°05' W 063°05'0 0.0
2017-Feb-11 19:26N 18°05' W 063°05'0 0.0
2017-Feb-11 18:24N 18°05' W 063°05'0 0.0
2017-Feb-11 17:33N 18°05' W 063°05'0 0.0
2017-Feb-11 16:22N 18°05' W 063°05'0 0.0
2017-Feb-11 15:32N 18°05' W 063°05'0 0.0
2017-Feb-11 14:30N 18°05' W 063°05'0 0.0
2017-Feb-11 13:30N 18°05' W 063°05'0 0.0
2017-Feb-11 12:28N 18°05' W 063°05'0 0.0
2017-Feb-11 11:26N 18°05' W 063°05'0 0.0
2017-Feb-11 10:29N 18°05' W 063°05'4 4.1
2017-Feb-11 09:29N 18°06' W 063°09'12 9.3
2017-Feb-11 08:14N 18°09' W 063°21'64 9.5
2017-Feb-11 01:33N 18°23' W 064°26'6 5.7
2017-Feb-11 00:28N 18°26' W 064°32'0 0.0
2017-Feb-10 23:29N 18°26' W 064°32'0 0.0
2017-Feb-10 22:29N 18°26' W 064°32'5 5.5
2017-Feb-10 21:30N 18°27' W 064°27'0 0.0
2017-Feb-10 20:31N 18°27' W 064°27'0 0.0
2017-Feb-10 18:32N 18°27' W 064°27'0 0.0
2017-Feb-10 15:22N 18°27' W 064°27'0 0.0
2017-Feb-10 11:09N 18°27' W 064°27'0 0.0
2017-Feb-10 10:26N 18°27' W 064°27'0 0.0
2017-Feb-10 09:24N 18°27' W 064°27'0 0.0
2017-Feb-10 08:25N 18°27' W 064°27'0 0.0
2017-Feb-10 07:20N 18°27' W 064°27'0 0.0
2017-Feb-10 06:26N 18°27' W 064°27'0 0.0
2017-Feb-10 05:33N 18°27' W 064°27'0 0.0
2017-Feb-10 04:34N 18°27' W 064°27'0 0.0
2017-Feb-10 03:16N 18°27' W 064°27'0 0.0
2017-Feb-10 02:29N 18°27' W 064°27'0 0.0
2017-Feb-10 01:14N 18°27' W 064°27'0 0.0
2017-Feb-09 23:29N 18°27' W 064°27'7 7.3
2017-Feb-09 22:33N 18°24' W 064°33'9 1.9
2017-Feb-09 17:33N 18°23' W 064°43'0 0.5
2017-Feb-09 16:33N 18°23' W 064°43'0 0.0
2017-Feb-09 15:28N 18°23' W 064°43'0 0.0
2017-Feb-09 14:29N 18°23' W 064°43'0 0.0
2017-Feb-09 13:32N 18°23' W 064°43'1 0.5
2017-Feb-09 12:33N 18°23' W 064°43'2 1.8
2017-Feb-09 11:33N 18°22' W 064°41'9 8.6
2017-Feb-09 10:33N 18°24' W 064°32'9 8.4
2017-Feb-09 09:30N 18°21' W 064°23'  
2017-Feb-05 20:33N 17°58' W 063°02'1312.8
2017-Feb-05 19:31N 18°08' W 063°11'4 0.5
2017-Feb-05 11:22N 18°12' W 063°12'4 4.4
2017-Feb-05 10:31N 18°12' W 063°16'1 1.1
2017-Feb-05 09:28N 18°13' W 063°15'1 1.2
2017-Feb-05 08:30N 18°13' W 063°14'1 1.0
2017-Feb-05 07:33N 18°13' W 063°13'1 0.9
2017-Feb-05 06:30N 18°13' W 063°12'3 3.3
2017-Feb-05 05:32N 18°12' W 063°15'4 2.7
2017-Feb-05 04:09N 18°10' W 063°18'4 5.6
2017-Feb-05 03:30N 18°07' W 063°16'6 6.1
2017-Feb-05 02:30N 18°06' W 063°10'4 4.3
2017-Feb-05 01:32N 18°05' W 063°06'0 0.0
2017-Feb-05 00:30N 18°05' W 063°06'0 0.0
2017-Feb-04 23:33N 18°05' W 063°06'0 0.0
2017-Feb-04 22:28N 18°05' W 063°06'1 0.6
2017-Feb-04 21:29N 18°05' W 063°05'0 0.0
2017-Feb-04 20:23N 18°05' W 063°05'0 0.0
2017-Feb-04 19:32N 18°05' W 063°05'0 0.0
2017-Feb-04 18:30N 18°05' W 063°05'0 0.0
2017-Feb-04 17:31N 18°05' W 063°05'0 0.0
2017-Feb-04 16:29N 18°05' W 063°05'0 0.0
2017-Feb-04 15:27N 18°05' W 063°05'0 0.0
2017-Feb-04 14:27N 18°05' W 063°05'0 0.0
2017-Feb-04 13:25N 18°05' W 063°05'0 0.0
2017-Feb-04 12:32N 18°05' W 063°05'0 0.0
2017-Feb-04 11:31N 18°05' W 063°05'  

Dump ship's entire track history